createdAt,value
2023-05-11T00:01:41.157Z,94324.31
2023-05-11T00:06:43.342Z,94324.31
2023-05-11T00:11:45.798Z,94329.22
2023-05-11T00:16:49.215Z,94328.56
2023-05-11T00:21:51.872Z,94324.69
2023-05-11T00:26:54.183Z,94318.03
2023-05-11T00:31:56.772Z,94320.44
2023-05-11T00:37:01.083Z,94313.31
2023-05-11T00:42:04.178Z,94304.03
2023-05-11T00:47:06.737Z,94324.84
2023-05-11T00:52:09.257Z,94335.63
2023-05-11T00:57:11.344Z,94332.34
2023-05-11T01:02:13.420Z,94344.63
2023-05-11T01:07:32.831Z,94342.91
2023-05-11T01:12:51.223Z,94337.97
2023-05-11T01:18:03.485Z,94350.53
2023-05-11T01:23:08.506Z,94342.91
2023-05-11T01:28:45.114Z,94335.78
2023-05-11T01:34:03.187Z,94348.09
2023-05-11T01:39:08.333Z,94350.50
2023-05-11T01:44:10.904Z,94340.34
2023-05-11T01:49:13.392Z,94350.91
2023-05-11T01:54:16.434Z,94354.94
2023-05-11T01:59:19.025Z,94360.81
2023-05-11T02:04:22.460Z,94336.53
2023-05-11T02:09:24.954Z,94362.47
2023-05-11T02:14:29.477Z,94344.59
2023-05-11T02:19:34.935Z,94341.28
2023-05-11T02:24:37.250Z,94337.03
2023-05-11T02:29:39.712Z,94327.25
2023-05-11T02:34:43.685Z,94320.69
2023-05-11T02:39:46.377Z,94336.75
2023-05-11T02:44:59.083Z,94322.47
2023-05-11T02:50:04.348Z,94332.66
2023-05-11T02:55:11.012Z,94312.34
2023-05-11T03:00:13.387Z,94308.69
2023-05-11T03:05:15.949Z,94308.78
2023-05-11T03:10:18.215Z,94298.88
2023-05-11T03:15:21.792Z,94302.78
2023-05-11T03:20:27.396Z,94317.63
2023-05-11T03:25:29.706Z,94321.50
2023-05-11T03:30:33.100Z,94316.25
2023-05-11T03:35:35.680Z,94325.75
2023-05-11T03:40:41.226Z,94328.63
2023-05-11T03:45:44.230Z,94329.69
2023-05-11T03:50:46.619Z,94339.16
2023-05-11T03:55:50.828Z,94319.81
2023-05-11T04:00:52.809Z,94332.31
2023-05-11T04:05:54.765Z,94336.13
2023-05-11T04:10:56.848Z,94340.53
2023-05-11T04:15:58.943Z,94343.09
2023-05-11T04:21:01.571Z,94347.66
2023-05-11T04:26:03.639Z,94338.59
2023-05-11T04:31:05.504Z,94341.81
2023-05-11T04:36:07.625Z,94322.34
2023-05-11T04:41:09.513Z,94348.72
2023-05-11T04:46:14.110Z,94338.31
2023-05-11T04:51:16.519Z,94352.22
2023-05-11T04:56:21.608Z,94336.44
2023-05-11T05:01:25.154Z,94353.91
2023-05-11T05:06:27.120Z,94359.84
2023-05-11T05:11:29.020Z,94347.44
2023-05-11T05:16:32.535Z,94348.09
2023-05-11T05:21:35.933Z,94352.41
2023-05-11T05:26:38.607Z,94350.31
2023-05-11T05:31:40.986Z,94356.03
2023-05-11T05:36:43.990Z,94351.81
2023-05-11T05:41:46.115Z,94361.84
2023-05-11T05:46:48.754Z,94368.84
2023-05-11T05:51:53.969Z,94375.09
2023-05-11T05:56:56.394Z,94359.50
2023-05-11T06:01:58.859Z,94375.00
2023-05-11T06:07:04.355Z,94377.81
2023-05-11T06:12:06.736Z,94389.78
2023-05-11T06:17:11.371Z,94386.06
2023-05-11T06:22:13.556Z,94395.44
2023-05-11T06:27:18.114Z,94390.47
2023-05-11T06:32:20.898Z,94391.78
2023-05-11T06:37:23.096Z,94382.25
2023-05-11T06:42:26.521Z,94383.09
2023-05-11T06:47:39.549Z,94391.22
2023-05-11T06:52:41.553Z,94384.28
2023-05-11T06:57:43.510Z,94393.03
2023-05-11T07:02:45.451Z,94387.22
2023-05-11T07:07:47.320Z,94369.94
2023-05-11T07:12:51.743Z,94370.72
2023-05-11T07:17:54.099Z,94396.97
2023-05-11T07:22:58.428Z,94375.31
2023-05-11T07:28:00.284Z,94389.03
2023-05-11T07:33:03.268Z,94387.13
2023-05-11T07:38:08.212Z,94380.09
2023-05-11T07:43:11.367Z,94399.06
2023-05-11T07:48:13.320Z,94394.09
2023-05-11T07:53:16.024Z,94380.66
2023-05-11T07:58:17.888Z,94381.41
2023-05-11T08:03:19.850Z,94365.00
2023-05-11T08:08:21.965Z,94368.00
2023-05-11T08:13:26.230Z,94346.88
2023-05-11T08:18:28.880Z,94361.03
2023-05-11T08:23:31.184Z,94351.72
2023-05-11T08:28:33.552Z,94349.31
2023-05-11T08:33:38.068Z,94347.41
2023-05-11T08:38:40.816Z,94345.13
2023-05-11T08:43:43.745Z,94319.66
2023-05-11T08:48:45.837Z,94328.56
2023-05-11T08:53:47.859Z,94323.84
2023-05-11T08:58:50.419Z,94323.56
2023-05-11T09:03:53.145Z,94310.13
2023-05-11T09:08:55.733Z,94311.00
2023-05-11T09:13:57.899Z,94301.13
2023-05-11T09:19:02.471Z,94309.63
2023-05-11T09:24:05.023Z,94299.41
2023-05-11T09:29:07.260Z,94300.94
2023-05-11T09:34:14.366Z,94301.09
2023-05-11T09:44:31.640Z,94301.34
2023-05-11T09:49:33.749Z,94299.94
2023-05-11T09:54:42.834Z,94293.94
2023-05-11T09:59:45.076Z,94292.06
2023-05-11T10:04:48.495Z,94285.53
2023-05-11T10:09:52.062Z,94286.00
2023-05-11T10:15:05.880Z,94280.22
2023-05-11T10:20:08.469Z,94282.03
2023-05-11T10:25:11.202Z,94276.22
2023-05-11T10:30:13.417Z,94270.59
2023-05-11T10:35:15.748Z,94259.53
2023-05-11T10:40:18.397Z,94268.59
2023-05-11T10:45:23.935Z,94256.97
2023-05-11T10:50:26.301Z,94240.22
2023-05-11T10:55:40.324Z,94245.78
2023-05-11T11:01:14.404Z,94245.25
2023-05-11T11:06:23.706Z,94228.63
2023-05-11T11:11:33.433Z,94225.16
2023-05-11T11:16:39.944Z,94235.41
2023-05-11T11:21:43.169Z,94227.56
2023-05-11T11:26:50.613Z,94212.56
2023-05-11T11:31:52.575Z,94199.22
2023-05-11T11:37:06.269Z,94206.91
2023-05-11T11:42:12.687Z,94194.81
2023-05-11T11:47:14.752Z,94189.41
2023-05-11T11:52:29.060Z,94174.88
2023-05-11T11:57:34.224Z,94178.81
2023-05-11T12:02:43.578Z,94170.75
2023-05-11T12:07:49.361Z,94167.66
2023-05-11T12:12:55.203Z,94155.94
2023-05-11T12:17:57.578Z,94152.00
2023-05-11T12:22:59.582Z,94158.13
2023-05-11T12:28:02.446Z,94161.22
2023-05-11T12:33:04.718Z,94152.03
2023-05-11T12:38:06.705Z,94139.22
2023-05-11T12:43:08.659Z,94134.81
2023-05-11T12:48:12.035Z,94114.19
2023-05-11T12:53:17.778Z,94125.44
2023-05-11T12:58:20.077Z,94107.31
2023-05-11T13:03:23.860Z,94118.94
2023-05-11T13:08:26.180Z,94103.91
2023-05-11T13:13:29.261Z,94104.91
2023-05-11T13:18:31.220Z,94109.41
2023-05-11T13:23:33.371Z,94098.91
2023-05-11T13:28:35.377Z,94092.50
2023-05-11T13:33:37.658Z,94083.50
2023-05-11T13:38:39.727Z,94063.16
2023-05-11T13:43:41.605Z,94058.91
2023-05-11T13:48:43.638Z,94049.09
2023-05-11T13:53:45.534Z,94061.50
2023-05-11T13:58:47.553Z,94043.81
2023-05-11T14:03:53.912Z,94046.03
2023-05-11T14:08:56.414Z,94051.47
2023-05-11T14:13:58.450Z,94036.75
2023-05-11T14:19:01.936Z,94034.09
2023-05-11T14:24:11.486Z,94034.31
2023-05-11T14:29:14.499Z,94018.19
2023-05-11T14:34:17.185Z,94033.59
2023-05-11T14:39:19.231Z,94004.06
2023-05-11T14:44:25.547Z,94001.00
2023-05-11T14:49:27.593Z,93996.25
2023-05-11T14:54:29.968Z,93990.25
2023-05-11T14:59:32.193Z,93982.97
2023-05-11T15:04:34.619Z,93986.13
2023-05-11T15:09:36.670Z,93975.44
2023-05-11T15:14:38.765Z,93973.09
2023-05-11T15:19:41.265Z,93963.44
2023-05-11T15:24:43.344Z,93948.16
2023-05-11T15:29:45.514Z,93962.59
2023-05-11T15:34:58.585Z,93955.72
2023-05-11T15:40:03.884Z,93956.13
2023-05-11T15:45:06.572Z,93951.09
2023-05-11T15:50:09.497Z,93953.44
2023-05-11T15:55:11.621Z,93946.78
2023-05-11T16:00:14.138Z,93944.91
2023-05-11T16:05:16.143Z,93936.75
2023-05-11T16:10:19.670Z,93934.00
2023-05-11T16:15:21.785Z,93938.72
2023-05-11T16:20:24.273Z,93927.47
2023-05-11T16:25:26.990Z,93933.66
2023-05-11T16:30:29.920Z,93949.22
2023-05-11T16:35:32.514Z,93961.53
2023-05-11T16:40:34.609Z,93960.47
2023-05-11T16:45:37.010Z,93956.28
2023-05-11T16:50:39.002Z,93968.75
2023-05-11T16:55:42.090Z,93978.41
2023-05-11T17:00:44.527Z,93980.41
2023-05-11T17:05:46.873Z,93985.03
2023-05-11T17:10:49.099Z,93987.41
2023-05-11T17:15:56.448Z,93980.91
2023-05-11T17:20:58.834Z,93983.31
2023-05-11T17:26:10.263Z,93996.84
2023-05-11T17:31:15.757Z,93995.31
2023-05-11T17:36:18.903Z,93993.03
2023-05-11T17:41:22.232Z,94000.06
2023-05-11T17:46:24.214Z,93986.16
2023-05-11T17:51:26.298Z,93988.13
2023-05-11T17:56:28.418Z,93999.75
2023-05-11T18:01:30.792Z,93997.44
2023-05-11T18:06:33.326Z,94000.16
2023-05-11T18:11:36.833Z,93989.31
2023-05-11T18:16:39.518Z,94000.16
2023-05-11T18:21:41.732Z,94007.13
2023-05-11T18:26:44.827Z,94017.16
2023-05-11T18:31:47.287Z,94018.66
2023-05-11T18:36:49.489Z,94026.00
2023-05-11T18:49:30.274Z,94038.69
2023-05-11T18:54:32.430Z,94033.69
2023-05-11T18:59:34.324Z,94043.28
2023-05-11T19:04:36.413Z,94047.91
2023-05-11T19:09:40.034Z,94057.22
2023-05-11T19:14:44.317Z,94060.63
2023-05-11T19:19:47.617Z,94059.41
2023-05-11T19:24:50.196Z,94068.59
2023-05-11T19:29:52.417Z,94076.25
2023-05-11T19:34:54.519Z,94078.13
2023-05-11T19:40:11.117Z,94087.75
2023-05-11T19:45:20.195Z,94086.84
2023-05-11T19:50:24.438Z,94090.31
2023-05-11T19:55:27.061Z,94094.84
2023-05-11T20:00:29.199Z,94096.69
2023-05-11T20:05:31.315Z,94103.56
2023-05-11T20:10:33.786Z,94095.69
2023-05-11T20:15:35.819Z,94121.13
2023-05-11T20:20:37.936Z,94129.06
2023-05-11T20:25:43.897Z,94127.81
2023-05-11T20:30:46.214Z,94131.06
2023-05-11T20:35:48.347Z,94129.88
2023-05-11T20:40:50.268Z,94136.75
2023-05-11T20:45:52.727Z,94132.72
2023-05-11T20:50:55.608Z,94150.25
2023-05-11T20:55:57.714Z,94156.97
2023-05-11T21:00:59.721Z,94135.41
2023-05-11T21:06:01.971Z,94162.47
2023-05-11T21:11:04.066Z,94166.56
2023-05-11T21:16:06.450Z,94153.56
2023-05-11T21:21:09.293Z,94144.91
2023-05-11T21:26:12.973Z,94149.75
2023-05-11T21:31:14.858Z,94155.88
2023-05-11T21:36:17.280Z,94151.16
2023-05-11T21:41:19.265Z,94156.81
2023-05-11T21:46:22.028Z,94158.53
2023-05-11T21:51:24.143Z,94161.75
2023-05-11T21:56:26.549Z,94159.97
2023-05-11T22:01:28.727Z,94171.50
2023-05-11T22:06:31.886Z,94164.38
2023-05-11T22:11:37.711Z,94157.94
2023-05-11T22:16:39.845Z,94178.72
2023-05-11T22:21:41.806Z,94185.16
2023-05-11T22:26:43.937Z,94179.13
2023-05-11T22:31:46.459Z,94185.59
2023-05-11T22:36:48.579Z,94189.06
2023-05-11T22:41:50.422Z,94185.53
2023-05-11T22:46:52.378Z,94175.69
2023-05-11T22:51:58.646Z,94182.50
2023-05-11T22:57:01.844Z,94197.97
2023-05-11T23:02:04.815Z,94198.03
2023-05-11T23:07:10.190Z,94191.03
2023-05-11T23:12:12.164Z,94202.25
2023-05-11T23:17:14.226Z,94200.25
2023-05-11T23:22:16.190Z,94199.63
2023-05-11T23:27:18.206Z,94198.00
2023-05-11T23:32:20.173Z,94201.81
2023-05-11T23:37:22.552Z,94203.53
2023-05-11T23:42:24.644Z,94205.91
2023-05-11T23:47:27.174Z,94188.72
2023-05-11T23:52:29.901Z,94212.97
2023-05-11T23:57:32.026Z,94204.59
